Disclaimer

Please do not use the information listed here in-flight or in-navigation, as they are not provided to us by the airports but are provided by volunteers, so they might be outdated.

Search


Regions


Airport information page

Radio informations:
Tower (TWR) - 122.1 MHz
DEP - 259.55 MHz

Airport informations:
Latitude: 43° 36' 23.09" N
Longitude: 005° 06' 33.30" E
Elevation: 195 feet - 59 meters
Operating hours: Remarks
Operating agency: Military
Timezone: UTC+1(+2DT) - Last Sunday in March to last Sunday in October
Fuel: Jet A1+, Jet A1 with icing inhibitor.

100/130 MIL Spec, low lead, aviation gasoline (BLUE)

Runway information:
16/34 - 6565 x 148 feet< - >2001 x 45 meters

Recent METARs:
LFMY 181930Z AUTO 00000KT CAVOK 05/03 Q1014
LFMY 182000Z AUTO VRB02KT CAVOK 04/02 Q1014
LFMY 182030Z AUTO VRB01KT CAVOK 03/01 Q1013

Airport on the map: